Archival Weather

Chicago O'Hare International

Chicago, Illinois (KORD)

Report from: Thursday, December 29, 2022 12:51 AM CST
Current time: Friday, June 21, 2024 3:43 AM CDT

Current weather – Weather history – Daily summaries
Weather forecast

Temperature6.1°C (43.0°F)
Wind chill2.2°C (36.0°F)
Dew point2.8°C (37.0°F)
Winds 12 kts (6.2 m/s, 13.8 mph) South (190°)
Wind gusts 21 kts (10.8 m/s, 24.2 mph)
Visibility10 mi. (16.1 km)
Clouds Few clouds 15,000 ft. (4,572 m)
Scattered clouds 25,000 ft. (7,620 m)
Altimeter29.76 in.Hg (1008 mB)
Relative humidity79 %
Density altitude-790 ft. (-241 m)
Sea-level pressure100.8 kPa (1008 mB, 29.77 in.Hg)
Remarks Automated weather observing station with precipitation discriminator
Flight conditions Visual Meteorological Conditions
Raw dataKORD 290651Z 19012G21KT 10SM FEW150 SCT250 06/03 A2976 RMK AO2 SLP082 T00610028
An error has occurred. This application may no longer respond until reloaded. Reload 🗙